Americus, GA

8:09 PM EDT on September 17, 2014 (GMT -0400)
Wildwood Circle | Change Station
CLOSE
Current Station
Personal Weather Station
Location: Americus, GA
Elevation: 402 ft
Nearby Weather Stations

Elev 402 ft 32.06 °N, 84.21 °W | Updated 9 minutes ago

Mostly Cloudy
Mostly Cloudy
76.3 °F
Feels Like 76 °F
N
0.0
Wind Variable Wind from North
Gusts 0.0 mph

Today
High -- | Low -- °F
--% Chance of Precip.
Yesterday
High -- | Low -- °F
Precip. -- in
7:22 AM 7:40 PM
Waning Crescent, 32% visible
Pressure 29.90 in
Visibility 10.0 miles
Clouds Scattered Clouds 5500 ft
Mostly Cloudy 6500 ft
Heat Index 76 °F
Dew Point 74 °F
Humidity 93%
Rainfall 0.04 in
Snow Depth Not available.
UV 0 out of 12
Pollen 7.90 out of 12
Air Quality Not available.
Flu Activity Not available.
METAR KACJ 172355Z AUTO 16003KT 10SM SCT055 BKN065 25/22 A2990 RMK AO2

More Conditions Fewer Conditions

Pressure 29.90 in
Visibility 10.0 miles
Clouds Scattered Clouds 5500 ft
Mostly Cloudy 6500 ft
Heat Index 76 °F
Dew Point 74 °F
Humidity 93%
Rainfall 0.04 in
Snow Depth Not available.
UV 0 out of 12
Pollen 7.90 out of 12
Air Quality Not available.
Flu Activity Not available.
METAR KACJ 172355Z AUTO 16003KT 10SM SCT055 BKN065 25/22 A2990 RMK AO2

More Conditions Fewer Conditions

10-Day Weather Forecast

Almanac

Astronomy

Sep. 17, 2014 Rise Set
Actual Time 7:22 AM EDT 7:40 PM EDT
Civil Twilight 6:57 AM EDT 8:04 PM EDT
Nautical Twilight 6:28 AM EDT 8:33 PM EDT
Astronomical Twilight 5:59 AM EDT 9:02 PM EDT
Moon 1:36 AM EDT (9/17) 3:35 PM EDT (9/17)
Length of Visible Light 13h 07m
Length of Day
12h 18m
Tomorrow will be 1m 57s shorter.
Waning Crescent, 32% of the Moon is Illuminated
Today
Waning Crescent
Sep 24
New
Oct 1
First Quarter
Oct 8
Full
Oct 15
Last Quarter

Today's Extremes

State Highs State Lows

Community

WunderPhotos

Upload Photos

1,754,200 photos uploaded!

Nearby

Snow Depth

Station Depth Elevation
No new snow has been reported.

Earthquake Activity

City Distance Mag. Time & Date
No recent earthquake activity has been reported nearby.
Minimum magnitude displayed is 2.5.

Coastal Water Temperatures

Place Temperature
No Stations Reporting

Nearby Weather Stations